Terminal Aerodrome Forecast
Issued by NWS

Home | Current Version | Previous Version | Text Only | Print | Product List | Glossary On
Versions: 1 2 3 4 5 6 7 8 9 10 11 12 13 14 15 16 17 18
000
FTUS43 KICT 242300
TAFHUT
TAF
KHUT 242322Z 2500/2524 19012KT P6SM VCTS BKN080CB
     FM250200 16009KT P6SM FEW090 BKN150
     FM251500 19012G18KT P6SM FEW250=

USA.gov is the U.S. government's official web portal to all federal, state and local government web resources and services.